Time;durP1;ratioP1;P1;durP2;ratioP2;P2;SDS_P1;SDS_P2;PMS_P1;PMS_P2;Temp;Humidity;BMP_temperature;BMP_pressure;BME280_temperature;BME280_humidity;BME280_pressure;Samples;Min_cycle;Max_cycle;Signal;HPM_P1;HPM_P2
2023/10/21 00:01:49;;;;;;;1999.90;999.90;;;13.70;99.90;;;;;;5096411;28;20032;-72
2023/10/21 00:04:15;;;;;;;1999.90;999.90;;;13.60;99.90;;;;;;5095797;28;20036;-72
2023/10/21 00:06:40;;;;;;;1999.90;999.90;;;13.80;99.90;;;;;;5096198;28;20497;-71
2023/10/21 00:09:06;;;;;;;1999.90;999.90;;;13.70;99.90;;;;;;5096433;28;20037;-72
2023/10/21 00:11:31;;;;;;;1999.90;999.90;;;13.80;99.90;;;;;;5096274;28;20390;-71
2023/10/21 00:13:57;;;;;;;1999.90;999.90;;;13.70;99.90;;;;;;5095951;28;20040;-71
2023/10/21 00:16:23;;;;;;;1999.90;999.90;;;13.50;99.90;;;;;;5077598;28;20486;-72
2023/10/21 00:18:49;;;;;;;1999.90;999.90;;;13.50;99.90;;;;;;5077722;28;20032;-72
2023/10/21 00:21:14;;;;;;;1999.90;999.90;;;13.40;99.90;;;;;;5096299;28;20044;-71
2023/10/21 00:23:40;;;;;;;1999.90;999.90;;;13.70;99.90;;;;;;5096050;28;20040;-72
2023/10/21 00:26:06;;;;;;;1999.90;999.90;;;13.70;99.90;;;;;;5095629;28;20036;-72
2023/10/21 00:28:32;;;;;;;1999.90;999.90;;;13.80;99.90;;;;;;5096096;28;20040;-71
2023/10/21 00:31:02;;;;;;;1999.90;999.90;;;13.90;99.90;;;;;;5096010;28;20032;-72
2023/10/21 00:33:28;;;;;;;1999.90;999.90;;;13.80;99.90;;;;;;5095445;28;20090;-73
2023/10/21 00:35:53;;;;;;;1999.90;999.90;;;13.80;99.90;;;;;;5077333;28;20028;-72
2023/10/21 00:38:19;;;;;;;1999.90;999.90;;;13.90;99.90;;;;;;5095316;28;20041;-72
2023/10/21 00:40:55;;;;;;;1999.90;999.90;;;13.90;99.90;;;;;;5095758;28;20033;-72
2023/10/21 00:43:42;;;;;;;1999.90;999.90;;;14.00;99.90;;;;;;5095341;28;20040;-71
2023/10/21 00:46:15;;;;;;;1999.90;999.90;;;14.20;99.90;;;;;;5095219;28;20083;-71
2023/10/21 00:48:41;;;;;;;1999.90;999.90;;;14.10;99.90;;;;;;5094312;28;20082;-71
2023/10/21 00:51:09;;;;;;;1999.90;999.90;;;14.20;99.90;;;;;;5095779;28;20040;-72
2023/10/21 00:53:35;;;;;;;1999.90;999.90;;;14.30;99.90;;;;;;5095603;28;20060;-72
2023/10/21 00:56:01;;;;;;;1999.90;999.90;;;14.30;99.90;;;;;;5095292;28;20090;-72
2023/10/21 00:58:30;;;;;;;1999.90;999.90;;;14.30;99.90;;;;;;5095698;28;20040;-71
2023/10/21 01:01:01;;;;;;;1999.90;999.90;;;14.30;99.90;;;;;;5077154;28;20040;-72
2023/10/21 01:03:27;;;;;;;1999.90;999.90;;;14.30;99.90;;;;;;5095206;28;20552;-72
2023/10/21 01:05:53;;;;;;;1999.90;999.90;;;14.40;99.90;;;;;;5095026;28;20041;-72
2023/10/21 01:08:19;;;;;;;1999.90;999.90;;;14.30;99.90;;;;;;5095346;28;20025;-72
2023/10/21 01:10:44;;;;;;;1999.90;999.90;;;14.40;99.90;;;;;;5095632;28;20032;-72
2023/10/21 01:13:10;;;;;;;1999.90;999.90;;;14.40;99.90;;;;;;5095139;28;20040;-71
2023/10/21 01:15:36;;;;;;;1999.90;999.90;;;14.40;99.90;;;;;;5076843;28;20032;-72
2023/10/21 01:18:03;;;;;;;1999.90;999.90;;;14.50;99.90;;;;;;5094577;28;20056;-72
2023/10/21 01:20:29;;;;;;;1999.90;999.90;;;14.40;99.90;;;;;;5095117;28;20528;-72
2023/10/21 01:22:57;;;;;;;1999.90;999.90;;;14.50;99.90;;;;;;5094980;28;20111;-72
2023/10/21 01:25:24;;;;;;;1999.90;999.90;;;14.60;99.90;;;;;;5094947;28;20102;-72
2023/10/21 01:27:56;;;;;;;1999.90;999.90;;;14.40;99.90;;;;;;5095061;28;20028;-72
2023/10/21 01:30:22;;;;;;;1999.90;999.90;;;14.40;99.90;;;;;;5094676;28;20039;-71
2023/10/21 01:32:48;;;;;;;1999.90;999.90;;;14.50;99.90;;;;;;5076294;28;20107;-72
2023/10/21 01:35:14;;;;;;;1999.90;999.90;;;14.50;99.90;;;;;;5095139;28;20043;-72
2023/10/21 01:37:40;;;;;;;1999.90;999.90;;;14.50;99.90;;;;;;5094409;28;20029;-72
2023/10/21 01:40:06;;;;;;;1999.90;999.90;;;14.50;99.90;;;;;;5094856;28;20036;-72
2023/10/21 01:42:34;;;;;;;1999.90;999.90;;;14.50;99.90;;;;;;5094567;28;20086;-71
2023/10/21 01:44:59;;;;;;;1999.90;999.90;;;14.70;99.90;;;;;;5094020;28;20833;-72
2023/10/21 01:47:25;;;;;;;1999.90;999.90;;;14.70;99.90;;;;;;5094525;28;20028;-71
2023/10/21 01:49:50;;;;;;;1999.90;999.90;;;14.70;99.90;;;;;;5094814;28;20037;-72
2023/10/21 01:52:16;;;;;;;1999.90;999.90;;;14.90;99.90;;;;;;5094571;28;20047;-72
2023/10/21 01:54:45;;;;;;;1999.90;999.90;;;14.90;99.90;;;;;;5094652;28;20072;-72
2023/10/21 01:57:10;;;;;;;1999.90;999.90;;;14.70;99.90;;;;;;5094657;28;20028;-72
2023/10/21 01:59:40;;;;;;;1999.90;999.90;;;14.80;99.90;;;;;;5097415;28;20481;-72
2023/10/21 02:02:06;;;;;;;1999.90;999.90;;;14.80;99.90;;;;;;5100836;28;20095;-72
2023/10/21 02:04:31;;;;;;;1999.90;999.90;;;14.90;99.90;;;;;;5101022;28;20115;-72
2023/10/21 02:06:57;;;;;;;1999.90;999.90;;;14.90;99.90;;;;;;5101074;28;20056;-72
2023/10/21 02:09:22;;;;;;;1999.90;999.90;;;15.00;99.90;;;;;;5083111;28;20032;-72
2023/10/21 02:11:48;;;;;;;1999.90;999.90;;;14.90;99.90;;;;;;5100593;28;20047;-71
2023/10/21 02:14:14;;;;;;;1999.90;999.90;;;15.00;99.90;;;;;;5101195;28;20108;-72
2023/10/21 02:16:40;;;;;;;1999.90;999.90;;;15.10;99.90;;;;;;5101179;28;20520;-72
2023/10/21 02:19:05;;;;;;;1999.90;999.90;;;15.10;99.90;;;;;;5101291;28;20040;-72
2023/10/21 02:21:31;;;;;;;1999.90;999.90;;;15.10;99.90;;;;;;5100930;28;20074;-72
2023/10/21 02:23:56;;;;;;;1999.90;999.90;;;15.20;99.90;;;;;;5100344;28;20028;-71
2023/10/21 02:26:22;;;;;;;1999.90;999.90;;;15.20;99.90;;;;;;5100750;28;20044;-72
2023/10/21 02:28:48;;;;;;;1999.90;999.90;;;15.10;99.90;;;;;;5101301;28;20044;-71
2023/10/21 02:31:13;;;;;;;1999.90;999.90;;;15.10;99.90;;;;;;5101310;28;20036;-72
2023/10/21 02:33:39;;;;;;;1999.90;999.90;;;15.20;99.90;;;;;;5100737;28;20036;-72
2023/10/21 02:36:05;;;;;;;1999.90;999.90;;;15.20;99.90;;;;;;5100563;28;20036;-72
2023/10/21 02:38:31;;;;;;;1999.90;999.90;;;15.10;99.90;;;;;;5082742;28;20025;-72
2023/10/21 02:40:56;;;;;;;1999.90;999.90;;;15.10;99.90;;;;;;5100959;28;20063;-73
2023/10/21 02:43:22;;;;;;;1999.90;999.90;;;15.10;99.90;;;;;;5100592;28;20025;-72
2023/10/21 02:45:48;;;;;;;1999.90;999.90;;;15.00;99.90;;;;;;5100653;28;20051;-72
2023/10/21 02:48:14;;;;;;;1999.90;999.90;;;15.20;99.90;;;;;;5082571;28;20460;-72
2023/10/21 02:50:40;;;;;;;1999.90;999.90;;;15.30;99.90;;;;;;5100751;28;20040;-72
2023/10/21 02:53:06;;;;;;;1999.90;999.90;;;15.20;99.90;;;;;;5100459;28;20056;-72
2023/10/21 02:55:31;;;;;;;1999.90;999.90;;;15.20;99.90;;;;;;5100499;28;20055;-73
2023/10/21 02:57:57;;;;;;;1999.90;999.90;;;15.20;99.90;;;;;;5100729;28;20024;-72
2023/10/21 03:00:23;;;;;;;1999.90;999.90;;;15.20;99.90;;;;;;5082311;28;20387;-72
2023/10/21 03:02:48;;;;;;;1999.90;999.90;;;15.00;99.90;;;;;;5100473;28;20037;-72
2023/10/21 03:05:18;;;;;;;1999.90;999.90;;;14.90;99.90;;;;;;5100641;28;20520;-72
2023/10/21 03:07:44;;;;;;;1999.90;999.90;;;14.90;99.90;;;;;;5100314;28;20502;-72
2023/10/21 03:10:10;;;;;;;1999.90;999.90;;;14.80;99.90;;;;;;5100288;28;20122;-72
2023/10/21 03:12:36;;;;;;;1999.90;999.90;;;14.70;99.90;;;;;;5096276;28;20110;-72
2023/10/21 03:15:02;;;;;;;1999.90;999.90;;;14.60;99.90;;;;;;5078553;28;20033;-72
2023/10/21 03:17:28;;;;;;;1999.90;999.90;;;14.40;99.90;;;;;;5096816;28;20064;-72
2023/10/21 03:19:54;;;;;;;1999.90;999.90;;;14.40;99.90;;;;;;5097312;28;20119;-72
2023/10/21 03:22:20;;;;;;;1999.90;999.90;;;14.30;99.90;;;;;;5097241;28;20028;-72
2023/10/21 03:24:46;;;;;;;1999.90;999.90;;;14.30;99.90;;;;;;5096815;28;20036;-72
2023/10/21 03:27:13;;;;;;;1999.90;999.90;;;14.20;99.90;;;;;;5096694;28;20040;-72
2023/10/21 03:29:42;;;;;;;1999.90;999.90;;;14.20;99.90;;;;;;5097079;28;20052;-72
2023/10/21 03:32:09;;;;;;;1999.90;999.90;;;14.10;99.90;;;;;;5096802;28;20111;-72
2023/10/21 03:34:35;;;;;;;1999.90;999.90;;;14.00;99.90;;;;;;5096924;28;20532;-72
2023/10/21 03:37:01;;;;;;;1999.90;999.90;;;14.00;99.90;;;;;;5096882;28;20039;-72
2023/10/21 03:39:27;;;;;;;1999.90;999.90;;;13.80;99.90;;;;;;5096527;28;20037;-71
2023/10/21 03:41:53;;;;;;;1999.90;999.90;;;13.70;99.90;;;;;;5078466;28;20036;-72
2023/10/21 03:44:19;;;;;;;1999.90;999.90;;;13.60;99.90;;;;;;5096374;28;20120;-72
2023/10/21 03:46:45;;;;;;;1999.90;999.90;;;13.60;99.90;;;;;;5096637;28;20512;-71
2023/10/21 03:49:10;;;;;;;1999.90;999.90;;;13.50;99.90;;;;;;5096327;28;20037;-72
2023/10/21 03:51:36;;;;;;;1999.90;999.90;;;13.40;99.90;;;;;;5096654;28;20111;-72
2023/10/21 03:54:02;;;;;;;1999.90;999.90;;;13.30;99.90;;;;;;5096281;28;20052;-72
2023/10/21 03:56:27;;;;;;;1999.90;999.90;;;13.30;99.90;;;;;;5096583;28;20056;-72
2023/10/21 03:58:53;;;;;;;1999.90;999.90;;;13.30;99.90;;;;;;5096345;28;20032;-72
2023/10/21 04:01:20;;;;;;;1999.90;999.90;;;13.20;99.90;;;;;;5096401;28;20041;-72
2023/10/21 04:03:46;;;;;;;1999.90;999.90;;;13.10;99.90;;;;;;5095653;28;20028;-72
2023/10/21 04:06:13;;;;;;;1999.90;999.90;;;13.20;99.90;;;;;;5096024;28;20072;-72
2023/10/21 04:08:39;;;;;;;1999.90;999.90;;;13.20;99.90;;;;;;5096037;28;20037;-72
2023/10/21 04:11:05;;;;;;;1999.90;999.90;;;13.30;99.90;;;;;;5077903;28;20040;-72
2023/10/21 04:13:31;;;;;;;1999.90;999.90;;;13.20;99.90;;;;;;5096336;28;20032;-72
2023/10/21 04:15:59;;;;;;;1999.90;999.90;;;13.20;99.90;;;;;;5096203;28;20119;-72
2023/10/21 04:18:25;;;;;;;1999.90;999.90;;;13.10;99.90;;;;;;5096238;28;20078;-72
2023/10/21 04:20:51;;;;;;;1999.90;999.90;;;13.10;99.90;;;;;;5096140;28;20583;-72
2023/10/21 04:23:16;;;;;;;1999.90;999.90;;;13.20;99.90;;;;;;5095633;28;20512;-72
2023/10/21 04:25:43;;;;;;;1999.90;999.90;;;13.10;99.90;;;;;;5095653;28;20052;-72
2023/10/21 04:28:09;;;;;;;1999.90;999.90;;;13.10;99.90;;;;;;5095933;28;20486;-72
2023/10/21 04:30:35;;;;;;;1999.90;999.90;;;13.00;99.90;;;;;;5096158;28;20048;-72
2023/10/21 04:33:01;;;;;;;1999.90;999.90;;;13.10;99.90;;;;;;5095696;28;20119;-72
2023/10/21 04:35:27;;;;;;;1999.90;999.90;;;13.10;99.90;;;;;;5077649;28;20107;-72
2023/10/21 04:37:52;;;;;;;1999.90;999.90;;;13.10;99.90;;;;;;5095358;28;20528;-72
2023/10/21 04:40:18;;;;;;;1999.90;999.90;;;13.20;99.90;;;;;;5096793;28;20040;-72
2023/10/21 04:42:44;;;;;;;1999.90;999.90;;;13.20;99.90;;;;;;5077544;28;20523;-72
2023/10/21 04:45:09;;;;;;;1999.90;999.90;;;13.30;99.90;;;;;;5077429;28;20498;-72
2023/10/21 04:47:35;;;;;;;1999.90;999.90;;;13.20;99.90;;;;;;5095450;28;20040;-72
2023/10/21 04:50:01;;;;;;;1999.90;999.90;;;13.20;99.90;;;;;;5095674;28;20107;-71
2023/10/21 04:52:26;;;;;;;1999.90;999.90;;;13.30;99.90;;;;;;5095520;28;20064;-72
2023/10/21 04:54:52;;;;;;;1999.90;999.90;;;13.10;99.90;;;;;;5077004;28;20024;-73
2023/10/21 04:57:18;;;;;;;1999.90;999.90;;;13.10;99.90;;;;;;5077339;28;20445;-73
2023/10/21 04:59:44;;;;;;;1999.90;999.90;;;13.10;99.90;;;;;;5095581;28;20056;-73
2023/10/21 05:02:10;;;;;;;1999.90;999.90;;;13.10;99.90;;;;;;5095962;28;20246;-72
2023/10/21 05:04:36;;;;;;;1999.90;999.90;;;13.00;99.90;;;;;;5095109;28;20028;-72
2023/10/21 05:07:02;;;;;;;1999.90;999.90;;;13.00;99.90;;;;;;5095311;28;20048;-73
2023/10/21 05:09:28;;;;;;;1999.90;999.90;;;13.00;99.90;;;;;;5095334;28;20083;-73
2023/10/21 05:11:54;;;;;;;1999.90;999.90;;;13.00;99.90;;;;;;5076866;28;20036;-73
2023/10/21 05:14:20;;;;;;;1999.90;999.90;;;13.20;99.90;;;;;;5076811;28;20091;-73
2023/10/21 05:16:46;;;;;;;1999.90;999.90;;;13.30;99.90;;;;;;5094999;28;20111;-73
2023/10/21 05:19:11;;;;;;;1999.90;999.90;;;13.30;99.90;;;;;;5095438;28;20540;-73
2023/10/21 05:21:37;;;;;;;1999.90;999.90;;;13.30;99.90;;;;;;5105712;22;20079;-70
2023/10/21 05:24:03;;;;;;;1999.90;999.90;;;13.30;99.90;;;;;;5075346;28;20055;-70
2023/10/21 05:26:29;;;;;;;1999.90;999.90;;;13.30;99.90;;;;;;5074912;28;20106;-71
2023/10/21 05:28:55;;;;;;;1999.90;999.90;;;13.30;99.90;;;;;;5056927;28;20126;-71
2023/10/21 05:31:21;;;;;;;1999.90;999.90;;;13.20;99.90;;;;;;5075021;28;20139;-72
2023/10/21 05:33:47;;;;;;;1999.90;999.90;;;13.30;99.90;;;;;;5074540;28;20076;-70
2023/10/21 05:36:13;;;;;;;1999.90;999.90;;;13.30;99.90;;;;;;5074914;28;20045;-70
2023/10/21 05:38:38;;;;;;;1999.90;999.90;;;13.30;99.90;;;;;;5074904;28;20040;-70
2023/10/21 05:41:04;;;;;;;1999.90;999.90;;;13.30;99.90;;;;;;5056642;28;20056;-70
2023/10/21 05:43:29;;;;;;;1999.90;999.90;;;13.30;99.90;;;;;;5075049;28;20041;-72
2023/10/21 05:45:55;;;;;;;1999.90;999.90;;;13.30;99.90;;;;;;5074748;28;20041;-70
2023/10/21 05:48:21;;;;;;;1999.90;999.90;;;13.20;99.90;;;;;;5074997;28;20025;-70
2023/10/21 05:50:47;;;;;;;1999.90;999.90;;;13.20;99.90;;;;;;5074913;28;20155;-71
2023/10/21 05:53:12;;;;;;;1999.90;999.90;;;13.10;99.90;;;;;;5074508;28;20478;-71
2023/10/21 05:55:42;;;;;;;1999.90;999.90;;;13.00;99.90;;;;;;5074659;28;20033;-77
2023/10/21 05:58:09;;;;;;;1999.90;999.90;;;12.90;99.90;;;;;;5074758;28;20574;-71
2023/10/21 06:00:35;;;;;;;1999.90;999.90;;;12.80;99.90;;;;;;5056396;28;20033;-73
2023/10/21 06:03:01;;;;;;;1999.90;999.90;;;12.60;99.90;;;;;;5074488;28;20047;-72
2023/10/21 06:05:27;;;;;;;1999.90;999.90;;;12.60;99.90;;;;;;5074576;28;20044;-70
2023/10/21 06:07:53;;;;;;;1999.90;999.90;;;12.60;99.90;;;;;;5074334;28;20037;-70
2023/10/21 06:10:20;;;;;;;1999.90;999.90;;;12.50;99.90;;;;;;5074603;28;20029;-70
2023/10/21 06:12:48;;;;;;;1999.90;999.90;;;12.30;99.90;;;;;;5056144;28;20057;-70
2023/10/21 06:15:14;;;;;;;1999.90;999.90;;;12.30;99.90;;;;;;5074347;28;20033;-70
2023/10/21 06:17:39;;;;;;;1999.90;999.90;;;12.20;99.90;;;;;;5074024;28;20033;-71
2023/10/21 06:20:07;;;;;;;1999.90;999.90;;;12.20;99.90;;;;;;5074445;28;20463;-70
2023/10/21 06:22:33;;;;;;;1999.90;999.90;;;12.20;99.90;;;;;;5053330;28;20034;-73
2023/10/21 06:24:59;;;;;;;1999.90;999.90;;;12.20;99.90;;;;;;5054178;28;20503;-70
2023/10/21 06:27:25;;;;;;;1999.90;999.90;;;12.20;99.90;;;;;;5058570;28;20112;-73
2023/10/21 06:29:50;;;;;;;1999.90;999.90;;;12.20;99.90;;;;;;5065210;28;20047;-70
2023/10/21 06:32:16;;;;;;;1999.90;999.90;;;12.20;99.90;;;;;;5072227;28;20122;-69
2023/10/21 06:34:41;;;;;;;1999.90;999.90;;;12.30;99.90;;;;;;5072441;28;20053;-81
2023/10/21 06:37:08;;;;;;;1999.90;999.90;;;12.30;99.90;;;;;;5054494;28;20095;-69
2023/10/21 06:39:34;;;;;;;1999.90;999.90;;;12.30;99.90;;;;;;5055889;28;20033;-69
2023/10/21 06:41:59;;;;;;;1999.90;999.90;;;12.40;99.90;;;;;;5073802;28;20041;-69
2023/10/21 06:44:25;;;;;;;1999.90;999.90;;;12.30;99.90;;;;;;5055466;28;20033;-69
2023/10/21 06:46:51;;;;;;;1999.90;999.90;;;12.30;99.90;;;;;;5075101;28;20037;-69
2023/10/21 06:49:16;;;;;;;1999.90;999.90;;;12.40;99.90;;;;;;5077333;28;20040;-68
2023/10/21 06:51:42;;;;;;;1999.90;999.90;;;12.40;99.90;;;;;;5077195;28;20479;-69
2023/10/21 06:54:09;;;;;;;1999.90;999.90;;;12.50;99.90;;;;;;5077477;28;20029;-69
2023/10/21 06:56:35;;;;;;;1999.90;999.90;;;12.60;99.90;;;;;;5077155;28;20048;-68
2023/10/21 06:59:01;;;;;;;1999.90;999.90;;;12.80;99.90;;;;;;5077398;28;20033;-69
2023/10/21 07:01:27;;;;;;;1999.90;999.90;;;12.80;99.90;;;;;;5077030;28;20040;-69
2023/10/21 07:03:53;;;;;;;1999.90;999.90;;;13.00;99.90;;;;;;5077103;28;20040;-69
2023/10/21 07:06:20;;;;;;;1999.90;999.90;;;13.10;99.90;;;;;;5076887;28;20124;-71
2023/10/21 07:08:46;;;;;;;1999.90;999.90;;;13.20;99.90;;;;;;5077177;28;20029;-69
2023/10/21 07:11:12;;;;;;;1999.90;999.90;;;13.30;99.90;;;;;;5076943;28;20120;-72
2023/10/21 07:13:38;;;;;;;1999.90;999.90;;;13.40;99.90;;;;;;5076962;28;20112;-71
2023/10/21 07:16:10;;;;;;;1999.90;999.90;;;13.40;99.90;;;;;;5076808;28;20044;-70
2023/10/21 07:18:36;;;;;;;1999.90;999.90;;;13.40;99.90;;;;;;5076965;28;20494;-71
2023/10/21 07:21:02;;;;;;;1999.90;999.90;;;13.50;99.90;;;;;;5076790;28;20128;-71
2023/10/21 07:23:28;;;;;;;1999.90;999.90;;;13.70;99.90;;;;;;5076704;28;20091;-72
2023/10/21 07:25:54;;;;;;;1999.90;999.90;;;13.80;99.90;;;;;;5076634;28;20049;-69
2023/10/21 07:28:19;;;;;;;1999.90;999.90;;;13.90;99.90;;;;;;5076788;28;20029;-69
2023/10/21 07:30:45;;;;;;;1999.90;999.90;;;13.90;99.90;;;;;;5058390;28;20041;-69
2023/10/21 07:33:10;;;;;;;1999.90;999.90;;;13.80;99.90;;;;;;5057173;28;20043;-72
2023/10/21 07:35:36;;;;;;;1999.90;999.90;;;13.70;99.90;;;;;;5075000;28;20525;-70
2023/10/21 07:38:03;;;;;;;1999.90;999.90;;;13.80;99.90;;;;;;5076524;28;20033;-72
2023/10/21 07:40:31;;;;;;;1999.90;999.90;;;13.80;99.90;;;;;;5058215;28;20529;-70
2023/10/21 07:42:58;;;;;;;1999.90;999.90;;;13.80;99.90;;;;;;5075978;28;20528;-71
2023/10/21 07:45:24;;;;;;;1999.90;999.90;;;13.90;99.90;;;;;;5076628;28;20052;-70
2023/10/21 07:47:49;;;;;;;1999.90;999.90;;;13.90;99.90;;;;;;5076374;28;20119;-70
2023/10/21 07:50:16;;;;;;;1999.90;999.90;;;13.90;99.90;;;;;;5076629;28;20108;-70
2023/10/21 07:52:43;;;;;;;1999.90;999.90;;;14.00;99.90;;;;;;5076140;28;20033;-72
2023/10/21 07:55:12;;;;;;;1999.90;999.90;;;14.10;99.90;;;;;;5076401;28;20072;-76
2023/10/21 07:57:39;;;;;;;1999.90;999.90;;;14.10;99.90;;;;;;5075511;28;20029;-71
2023/10/21 08:00:05;;;;;;;1999.90;999.90;;;14.20;99.90;;;;;;5076368;28;20036;-70
2023/10/21 08:02:31;;;;;;;1999.90;999.90;;;14.20;99.90;;;;;;5075995;28;20437;-72
2023/10/21 08:04:57;;;;;;;1999.90;999.90;;;14.30;99.90;;;;;;5076007;28;20029;-72
2023/10/21 08:07:23;;;;;;;1999.90;999.90;;;14.30;99.90;;;;;;5076055;28;20041;-70
2023/10/21 08:09:49;;;;;;;1999.90;999.90;;;14.30;99.90;;;;;;5057858;28;20059;-73
2023/10/21 08:12:15;;;;;;;1999.90;999.90;;;14.40;99.90;;;;;;5057579;28;20037;-71
2023/10/21 08:14:40;;;;;;;1999.90;999.90;;;14.30;99.90;;;;;;5075927;28;20394;-71
2023/10/21 08:17:07;;;;;;;1999.90;999.90;;;14.30;99.90;;;;;;5075824;28;20044;-68
2023/10/21 08:19:34;;;;;;;1999.90;999.90;;;14.30;99.90;;;;;;5076214;28;20029;-73
2023/10/21 08:22:00;;;;;;;1999.90;999.90;;;14.50;99.90;;;;;;5075757;28;20099;-69
2023/10/21 08:24:26;;;;;;;1999.90;999.90;;;14.60;99.90;;;;;;5076086;28;20052;-69
2023/10/21 08:26:52;;;;;;;1999.90;999.90;;;14.70;99.90;;;;;;5075723;28;20048;-69
2023/10/21 08:29:17;;;;;;;1999.90;999.90;;;14.80;99.90;;;;;;5075694;28;20044;-70
2023/10/21 08:31:43;;;;;;;1999.90;999.90;;;15.10;99.90;;;;;;5075473;28;20080;-69
2023/10/21 08:34:12;;;;;;;1999.90;999.90;;;15.10;99.90;;;;;;5057289;28;20116;-69
2023/10/21 08:36:39;;;;;;;1999.90;999.90;;;15.10;99.90;;;;;;5075669;28;20064;-69
2023/10/21 08:39:08;;;;;;;1999.90;999.90;;;15.10;99.90;;;;;;5075642;28;20029;-69
2023/10/21 08:41:39;;;;;;;1999.90;999.90;;;15.30;99.90;;;;;;5075451;28;20099;-68
2023/10/21 08:44:06;;;;;;;1999.90;999.90;;;15.50;99.90;;;;;;5075632;28;20113;-69
2023/10/21 08:46:33;;;;;;;1999.90;999.90;;;15.70;99.90;;;;;;5075334;28;20091;-69
2023/10/21 08:49:03;;;;;;;1999.90;999.90;;;15.90;99.90;;;;;;5075545;28;20147;-68
2023/10/21 08:51:30;;;;;;;1999.90;999.90;;;16.20;99.90;;;;;;5070366;28;20036;-70
2023/10/21 08:54:00;;;;;;;1999.90;999.90;;;16.60;99.90;;;;;;5074887;28;20025;-69
2023/10/21 08:56:29;;;;;;;1999.90;999.90;;;16.80;99.90;;;;;;5075423;28;20086;-69
2023/10/21 08:58:56;;;;;;;1999.90;999.90;;;16.60;99.90;;;;;;5057141;28;20052;-70
2023/10/21 09:01:22;;;;;;;1999.90;999.90;;;16.50;99.90;;;;;;5075267;28;20071;-68
2023/10/21 09:03:49;;;;;;;1999.90;999.90;;;16.40;99.90;;;;;;5075404;28;20029;-69
2023/10/21 09:06:17;;;;;;;1999.90;999.90;;;16.30;99.90;;;;;;5056653;28;20040;-69
2023/10/21 09:08:44;;;;;;;1999.90;999.90;;;16.20;99.90;;;;;;5074309;28;20072;-69
2023/10/21 09:11:12;;;;;;;1999.90;999.90;;;16.00;99.90;;;;;;5074693;28;20533;-69
2023/10/21 09:13:40;;;;;;;1999.90;999.90;;;16.00;99.90;;;;;;5073459;28;20029;-68
2023/10/21 09:16:30;;;;;;;1999.90;999.90;;;16.00;99.90;;;;;;5074914;28;20116;-69
2023/10/21 09:19:06;;;;;;;1999.90;999.90;;;16.00;99.90;;;;;;5075411;28;20082;-69
2023/10/21 09:21:36;;;;;;;1999.90;999.90;;;16.10;99.90;;;;;;5074524;28;20037;-69
2023/10/21 09:24:09;;;;;;;1999.90;999.90;;;16.10;99.90;;;;;;5075160;28;20029;-69
2023/10/21 09:26:42;;;;;;;1999.90;999.90;;;16.10;99.90;;;;;;5074620;28;20521;-69
2023/10/21 09:29:19;;;;;;;1999.90;999.90;;;16.20;99.90;;;;;;5056734;28;20080;-71
2023/10/21 09:31:47;;;;;;;1999.90;999.90;;;16.30;99.90;;;;;;5074990;28;20537;-69
2023/10/21 09:34:24;;;;;;;1999.90;999.90;;;16.40;99.90;;;;;;5074886;28;20078;-69
2023/10/21 09:37:00;;;;;;;1999.90;999.90;;;16.40;99.90;;;;;;5074548;28;20033;-69
2023/10/21 09:39:33;;;;;;;1999.90;999.90;;;16.50;99.90;;;;;;5056613;28;20037;-68
2023/10/21 09:42:00;;;;;;;1999.90;999.90;;;16.50;99.90;;;;;;5074775;28;20033;-69
2023/10/21 09:44:25;;;;;;;1999.90;999.90;;;16.70;99.90;;;;;;5075050;28;20047;-69
2023/10/21 09:46:54;;;;;;;1999.90;999.90;;;16.60;99.90;;;;;;5074340;28;20090;-69
2023/10/21 09:49:22;;;;;;;1999.90;999.90;;;16.70;99.90;;;;;;5074652;28;20044;-69
2023/10/21 09:52:14;;;;;;;1999.90;999.90;;;16.70;99.90;;;;;;5074247;28;20094;-69
2023/10/21 09:55:03;;;;;;;1999.90;999.90;;;16.60;99.90;;;;;;5074845;28;20029;-69
2023/10/21 09:57:29;;;;;;;1999.90;999.90;;;16.70;99.90;;;;;;5074493;28;20040;-69
2023/10/21 09:59:56;;;;;;;1999.90;999.90;;;16.70;99.90;;;;;;5074612;28;20033;-69
2023/10/21 10:02:22;;;;;;;1999.90;999.90;;;16.70;99.90;;;;;;5074234;28;20041;-72
2023/10/21 10:04:49;;;;;;;1999.90;999.90;;;16.70;99.90;;;;;;5074458;28;20029;-71
2023/10/21 10:07:17;;;;;;;1999.90;999.90;;;16.80;99.90;;;;;;5074128;28;20076;-69
2023/10/21 10:09:44;;;;;;;1999.90;999.90;;;16.90;99.90;;;;;;5074326;28;20029;-69
2023/10/21 10:12:12;;;;;;;1999.90;999.90;;;16.90;99.90;;;;;;5055984;28;20075;-69
2023/10/21 10:14:37;;;;;;;1999.90;999.90;;;16.80;99.90;;;;;;5074306;28;20111;-69
2023/10/21 10:17:06;;;;;;;1999.90;999.90;;;16.80;99.90;;;;;;5074018;28;20041;-69
2023/10/21 10:19:38;;;;;;;1999.90;999.90;;;16.90;99.90;;;;;;5074245;28;20025;-69
2023/10/21 10:22:29;;;;;;;1999.90;999.90;;;17.00;99.90;;;;;;5077380;28;20041;-69
2023/10/21 10:25:10;;;;;;;1999.90;999.90;;;17.20;99.90;;;;;;5068547;28;20060;-69
2023/10/21 10:27:40;;;;;;;1999.90;999.90;;;17.30;99.90;;;;;;5077764;28;20048;-69
2023/10/21 10:30:20;;;;;;;1999.90;999.90;;;17.50;99.90;;;;;;5077532;28;20055;-69
2023/10/21 10:32:49;;;;;;;1999.90;999.90;;;17.70;99.90;;;;;;5077566;28;20040;-67
2023/10/21 10:35:32;;;;;;;1999.90;999.90;;;18.00;99.90;;;;;;5077432;28;20465;-69
2023/10/21 10:38:02;;;;;;;1999.90;999.90;;;18.10;99.90;;;;;;5077418;28;20036;-68
2023/10/21 10:40:36;;;;;;;1999.90;999.90;;;18.10;99.90;;;;;;5077528;28;20064;-69
2023/10/21 10:43:03;;;;;;;1999.90;999.90;;;18.00;99.90;;;;;;5077400;28;20047;-70
2023/10/21 10:45:32;;;;;;;1999.90;999.90;;;17.90;99.90;;;;;;5077428;28;20036;-72
2023/10/21 10:48:00;;;;;;;1999.90;999.90;;;17.70;99.90;;;;;;5076985;28;20037;-69
2023/10/21 10:50:26;;;;;;;1999.90;999.90;;;17.70;99.90;;;;;;5077442;28;20055;-68
2023/10/21 10:52:54;;;;;;;1999.90;999.90;;;17.60;99.90;;;;;;5077348;28;20545;-69
2023/10/21 10:55:19;;;;;;;1999.90;999.90;;;17.60;99.90;;;;;;5077478;28;20110;-68
2023/10/21 10:57:46;;;;;;;1999.90;999.90;;;17.80;99.90;;;;;;5076923;28;20116;-69
2023/10/21 11:00:20;;;;;;;1999.90;999.90;;;18.10;99.90;;;;;;5059071;28;20044;-69
2023/10/21 11:02:46;;;;;;;1999.90;999.90;;;18.30;99.90;;;;;;5077149;28;20036;-69
2023/10/21 11:05:22;;;;;;;1999.90;999.90;;;18.40;99.90;;;;;;5076962;28;20112;-69
2023/10/21 11:07:54;;;;;;;1999.90;999.90;;;18.40;99.90;;;;;;5058477;28;20033;-70
2023/10/21 11:10:21;;;;;;;1999.90;999.90;;;18.40;99.90;;;;;;5077058;28;20099;-70
2023/10/21 11:12:52;;;;;;;1999.90;999.90;;;18.30;99.90;;;;;;5076858;28;20033;-69
2023/10/21 11:15:18;;;;;;;1999.90;999.90;;;18.30;99.90;;;;;;5076940;28;20021;-70
2023/10/21 11:17:47;;;;;;;1999.90;999.90;;;18.20;99.90;;;;;;5063662;28;20083;-70
2023/10/21 11:20:14;;;;;;;1999.90;999.90;;;18.10;99.90;;;;;;5076991;28;20029;-70
2023/10/21 11:22:43;;;;;;;1999.90;999.90;;;17.90;99.90;;;;;;5076674;28;20045;-72
2023/10/21 11:25:08;;;;;;;1999.90;999.90;;;17.90;99.90;;;;;;5076607;28;20044;-73
2023/10/21 11:27:36;;;;;;;1999.90;999.90;;;18.00;99.90;;;;;;5076423;28;20033;-73
2023/10/21 11:30:07;;;;;;;1999.90;999.90;;;18.10;99.90;;;;;;5076254;28;20045;-74
2023/10/21 11:32:35;;;;;;;1999.90;999.90;;;18.20;99.90;;;;;;5075906;28;20040;-72
2023/10/21 11:35:09;;;;;;;1999.90;999.90;;;18.40;99.90;;;;;;5057845;28;20029;-72
2023/10/21 11:37:34;;;;;;;1999.90;999.90;;;18.60;99.90;;;;;;5057969;28;20041;-72
2023/10/21 11:40:01;;;;;;;1999.90;999.90;;;19.10;99.90;;;;;;5076579;28;20033;-74
2023/10/21 11:42:27;;;;;;;1999.90;999.90;;;19.80;99.90;;;;;;5057831;28;20041;-73
2023/10/21 11:44:57;;;;;;;1999.90;999.90;;;20.00;99.90;;;;;;5076206;28;20033;-73
2023/10/21 11:47:28;;;;;;;1999.90;999.90;;;19.90;99.90;;;;;;5075931;28;20040;-73
2023/10/21 11:49:57;;;;;;;1999.90;999.90;;;19.90;99.90;;;;;;5076501;28;20036;-74
2023/10/21 11:52:25;;;;;;;1999.90;999.90;;;19.90;99.90;;;;;;5075842;28;20507;-73
2023/10/21 12:22:12;;;;;;;1999.90;999.90;;;19.30;99.90;;;;;;5075391;28;20041;-74
2023/10/21 12:30:34;;;;;;;1999.90;999.90;;;19.60;99.90;;;;;;5055626;28;20487;-74
2023/10/21 12:32:53;;;;;;;1999.90;999.90;;;19.90;99.90;;;;;;5054342;28;20041;-73